createdAt,value
2022-12-26T00:01:42.130Z,99306.50
2022-12-26T00:04:49.051Z,99317.31
2022-12-26T00:06:55.448Z,99318.91
2022-12-26T00:09:22.024Z,99317.38
2022-12-26T00:11:48.652Z,99319.47
2022-12-26T00:14:16.602Z,99324.00
2022-12-26T00:16:44.961Z,99324.06
2022-12-26T00:19:12.198Z,99327.59
2022-12-26T00:21:39.005Z,99332.44
2022-12-26T00:24:05.932Z,99333.94
2022-12-26T00:26:35.811Z,99341.00
2022-12-26T00:29:02.505Z,99351.09
2022-12-26T00:31:32.577Z,99344.63
2022-12-26T00:34:00.214Z,99342.69
2022-12-26T00:36:29.848Z,99356.06
2022-12-26T00:38:58.845Z,99352.44
2022-12-26T00:41:25.863Z,99344.41
2022-12-26T00:43:53.109Z,99347.81
2022-12-26T00:46:20.442Z,99343.84
2022-12-26T00:48:47.585Z,99354.88
2022-12-26T00:51:15.106Z,99355.75
2022-12-26T00:53:42.002Z,99358.81
2022-12-26T00:56:08.702Z,99356.50
2022-12-26T00:58:35.559Z,99348.63
2022-12-26T01:01:21.891Z,99361.13
2022-12-26T01:03:49.666Z,99351.03
2022-12-26T01:06:17.571Z,99361.38
2022-12-26T01:08:44.727Z,99352.75
2022-12-26T01:11:13.522Z,99354.94
2022-12-26T01:13:40.432Z,99362.56
2022-12-26T01:16:07.923Z,99364.66
2022-12-26T01:18:35.181Z,99362.09
2022-12-26T01:21:07.911Z,99359.53
2022-12-26T01:23:34.621Z,99374.63
2022-12-26T01:26:15.276Z,99373.88
2022-12-26T01:28:46.082Z,99379.72
2022-12-26T01:31:12.768Z,99377.28
2022-12-26T01:33:39.356Z,99372.41
2022-12-26T01:36:06.332Z,99372.16
2022-12-26T01:38:32.931Z,99368.03
2022-12-26T01:41:17.713Z,99360.63
2022-12-26T01:43:53.486Z,99348.31
2022-12-26T01:46:26.071Z,99348.47
2022-12-26T01:48:55.006Z,99350.78
2022-12-26T01:51:25.706Z,99348.97
2022-12-26T01:53:56.469Z,99347.09
2022-12-26T01:56:47.053Z,99334.13
2022-12-26T01:59:22.299Z,99338.50
2022-12-26T02:01:53.535Z,99344.44
2022-12-26T02:04:48.161Z,99344.69
2022-12-26T02:07:14.889Z,99351.97
2022-12-26T02:09:41.724Z,99350.53
2022-12-26T02:12:35.508Z,99363.72
2022-12-26T02:15:07.219Z,99354.66
2022-12-26T02:17:33.904Z,99362.78
2022-12-26T02:20:19.568Z,99359.13
2022-12-26T02:23:04.759Z,99354.91
2022-12-26T02:25:59.155Z,99360.72
2022-12-26T02:28:43.673Z,99356.34
2022-12-26T02:31:13.045Z,99358.28
2022-12-26T02:33:43.095Z,99350.88
2022-12-26T02:36:35.854Z,99359.84
2022-12-26T02:39:44.831Z,99358.28
2022-12-26T02:42:19.594Z,99375.00
2022-12-26T02:45:27.002Z,99378.84
2022-12-26T02:48:02.606Z,99376.56
2022-12-26T02:51:15.005Z,99380.09
2022-12-26T02:54:11.886Z,99384.88
2022-12-26T02:57:02.435Z,99398.22
2022-12-26T03:00:07.675Z,99402.97
2022-12-26T03:03:09.038Z,99418.94
2022-12-26T03:06:00.370Z,99428.22
2022-12-26T03:08:54.411Z,99416.16
2022-12-26T03:11:41.872Z,99405.47
2022-12-26T03:14:17.486Z,99399.50
2022-12-26T03:17:08.074Z,99391.09
2022-12-26T03:19:37.054Z,99378.38
2022-12-26T03:22:26.301Z,99377.53
2022-12-26T03:25:12.509Z,99378.50
2022-12-26T03:27:39.104Z,99382.41
2022-12-26T03:30:24.942Z,99383.03
2022-12-26T03:32:54.885Z,99364.41
2022-12-26T03:35:22.605Z,99368.66
2022-12-26T03:38:15.578Z,99376.06
2022-12-26T03:41:09.806Z,99377.88
2022-12-26T03:44:24.838Z,99367.16
2022-12-26T03:47:31.108Z,99378.69
2022-12-26T03:50:23.427Z,99381.06
2022-12-26T03:53:56.338Z,99383.44
2022-12-26T03:57:04.365Z,99377.59
2022-12-26T03:59:57.227Z,99381.72
2022-12-26T04:02:45.605Z,99387.28
2022-12-26T04:05:34.926Z,99372.25
2022-12-26T04:08:24.824Z,99370.16
2022-12-26T04:11:14.427Z,99380.09
2022-12-26T04:14:05.557Z,99364.63
2022-12-26T04:16:58.082Z,99375.34
2022-12-26T04:19:27.776Z,99369.81
2022-12-26T04:22:19.136Z,99373.25
2022-12-26T04:25:15.822Z,99371.75
2022-12-26T04:28:01.250Z,99376.34
2022-12-26T04:30:46.529Z,99377.75
2022-12-26T04:33:42.715Z,99383.63
2022-12-26T04:36:36.632Z,99394.47
2022-12-26T04:39:25.402Z,99397.81
2022-12-26T04:42:12.507Z,99398.63
2022-12-26T04:44:40.031Z,99414.47
2022-12-26T04:47:07.005Z,99412.75
2022-12-26T04:50:03.666Z,99419.97
2022-12-26T04:52:50.749Z,99415.09
2022-12-26T04:55:18.273Z,99423.09
2022-12-26T04:57:44.857Z,99434.41
2022-12-26T05:00:12.109Z,99436.75
2022-12-26T05:02:57.332Z,99444.34
2022-12-26T05:05:42.441Z,99441.38
2022-12-26T05:08:52.007Z,99449.06
2022-12-26T05:11:18.793Z,99457.78
2022-12-26T05:13:45.465Z,99458.63
2022-12-26T05:16:30.608Z,99461.84
2022-12-26T05:19:15.698Z,99464.50
2022-12-26T05:22:01.050Z,99449.16
2022-12-26T05:24:56.177Z,99453.13
2022-12-26T05:27:41.929Z,99445.22
2022-12-26T05:30:09.562Z,99443.31
2022-12-26T05:32:54.405Z,99461.44
2022-12-26T05:35:23.450Z,99457.47
2022-12-26T05:37:50.035Z,99460.13
2022-12-26T05:40:16.661Z,99451.19
2022-12-26T05:42:43.306Z,99459.81
2022-12-26T05:45:10.223Z,99455.88
2022-12-26T05:47:36.820Z,99462.38
2022-12-26T05:50:03.738Z,99458.66
2022-12-26T05:52:30.319Z,99463.22
2022-12-26T05:54:56.887Z,99467.50
2022-12-26T05:57:23.506Z,99460.13
2022-12-26T05:59:50.148Z,99446.59
2022-12-26T06:02:16.857Z,99451.31
2022-12-26T06:04:43.593Z,99450.66
2022-12-26T06:07:10.192Z,99444.16
2022-12-26T06:09:36.783Z,99457.69
2022-12-26T06:12:03.483Z,99457.81
2022-12-26T06:14:30.045Z,99461.28
2022-12-26T06:16:56.661Z,99462.78
2022-12-26T06:19:23.304Z,99464.19
2022-12-26T06:21:49.877Z,99462.56
2022-12-26T06:24:16.531Z,99460.88
2022-12-26T06:26:43.106Z,99472.81
2022-12-26T06:29:10.192Z,99481.75
2022-12-26T06:31:36.921Z,99479.41
2022-12-26T06:34:03.673Z,99478.22
2022-12-26T06:36:30.354Z,99480.34
2022-12-26T06:38:57.282Z,99487.56
2022-12-26T06:41:25.116Z,99483.47
2022-12-26T06:43:52.234Z,99474.19
2022-12-26T06:46:22.158Z,99490.88
2022-12-26T06:48:48.815Z,99495.03
2022-12-26T06:51:24.038Z,99499.19
2022-12-26T06:53:51.975Z,99508.31
2022-12-26T06:56:24.545Z,99502.19
2022-12-26T06:58:55.197Z,99503.34
2022-12-26T07:01:22.848Z,99497.28
2022-12-26T07:03:52.183Z,99502.56
2022-12-26T07:06:27.934Z,99505.50
2022-12-26T07:08:57.920Z,99506.72
2022-12-26T07:11:28.165Z,99510.53
2022-12-26T07:13:55.625Z,99500.00
2022-12-26T07:16:23.347Z,99499.50
2022-12-26T07:18:55.320Z,99497.97
2022-12-26T07:21:22.849Z,99505.66
2022-12-26T07:23:50.226Z,99503.84
2022-12-26T07:26:17.246Z,99502.75
2022-12-26T07:28:43.876Z,99511.94
2022-12-26T07:31:16.659Z,99514.53
2022-12-26T07:33:43.625Z,99519.84
2022-12-26T07:36:10.331Z,99523.81
2022-12-26T07:38:36.904Z,99527.88
2022-12-26T07:41:23.557Z,99531.81
2022-12-26T07:43:50.099Z,99527.63
2022-12-26T07:46:16.801Z,99529.69
2022-12-26T07:48:43.452Z,99540.78
2022-12-26T07:51:10.134Z,99538.91
2022-12-26T07:53:36.828Z,99516.03
2022-12-26T07:56:04.085Z,99551.22
2022-12-26T07:58:30.712Z,99546.47
2022-12-26T08:01:01.472Z,99553.59
2022-12-26T08:03:28.151Z,99557.28
2022-12-26T08:05:55.001Z,99563.63
2022-12-26T08:08:21.955Z,99558.78
2022-12-26T08:10:48.620Z,99551.34
2022-12-26T08:13:15.233Z,99563.34
2022-12-26T08:15:41.882Z,99578.22
2022-12-26T08:18:08.489Z,99577.50
2022-12-26T08:20:35.141Z,99583.03
2022-12-26T08:23:01.725Z,99587.31
2022-12-26T08:25:28.555Z,99577.84
2022-12-26T08:27:55.137Z,99580.00
2022-12-26T08:30:21.779Z,99566.06
2022-12-26T08:32:48.466Z,99578.06
2022-12-26T08:35:15.085Z,99573.25
2022-12-26T08:37:41.657Z,99570.59
2022-12-26T08:40:08.730Z,99574.78
2022-12-26T08:42:44.586Z,99574.84
2022-12-26T08:45:22.095Z,99541.81
2022-12-26T08:47:48.721Z,99568.94
2022-12-26T08:50:16.230Z,99554.56
2022-12-26T08:52:43.802Z,99560.53
2022-12-26T08:55:10.543Z,99566.28
2022-12-26T08:57:37.780Z,99569.56
2022-12-26T09:00:05.819Z,99564.34
2022-12-26T09:02:32.596Z,99540.59
2022-12-26T09:04:59.308Z,99533.47
2022-12-26T09:07:25.936Z,99552.81
2022-12-26T09:09:52.551Z,99540.28
2022-12-26T09:12:19.147Z,99550.47
2022-12-26T09:14:50.236Z,99547.03
2022-12-26T09:17:17.083Z,99557.03
2022-12-26T09:19:43.763Z,99542.09
2022-12-26T09:22:33.543Z,99534.69
2022-12-26T09:25:01.909Z,99537.44
2022-12-26T09:27:29.365Z,99541.19
2022-12-26T09:29:55.994Z,99527.59
2022-12-26T09:32:23.049Z,99532.22
2022-12-26T09:34:49.746Z,99529.59
2022-12-26T09:37:16.400Z,99534.47
2022-12-26T09:39:43.029Z,99527.22
2022-12-26T09:42:29.148Z,99521.03
2022-12-26T09:45:19.096Z,99516.31
2022-12-26T09:48:24.877Z,99516.31
2022-12-26T09:50:52.361Z,99506.22
2022-12-26T09:53:34.767Z,99506.19
2022-12-26T09:56:05.989Z,99508.25
2022-12-26T09:58:36.286Z,99493.66
2022-12-26T10:01:13.720Z,99502.03
2022-12-26T10:03:43.032Z,99488.22
2022-12-26T10:06:19.775Z,99495.84
2022-12-26T10:09:10.954Z,99492.69
2022-12-26T10:11:59.193Z,99488.06
2022-12-26T10:14:44.130Z,99478.38
2022-12-26T10:17:19.705Z,99470.59
2022-12-26T10:20:09.680Z,99466.81
2022-12-26T10:23:00.555Z,99459.13
2022-12-26T10:25:42.369Z,99457.09
2022-12-26T10:28:44.160Z,99461.59
2022-12-26T10:31:32.622Z,99458.34
2022-12-26T10:34:02.066Z,99459.88
2022-12-26T10:36:37.396Z,99449.28
2022-12-26T10:39:13.497Z,99438.88
2022-12-26T10:41:47.100Z,99444.25
2022-12-26T10:44:15.702Z,99443.09
2022-12-26T10:47:03.727Z,99451.81
2022-12-26T10:49:30.380Z,99431.00
2022-12-26T10:52:00.349Z,99434.28
2022-12-26T10:54:28.423Z,99434.66
2022-12-26T10:56:56.861Z,99428.47
2022-12-26T10:59:39.306Z,99431.13
2022-12-26T11:02:24.512Z,99426.13
2022-12-26T11:07:57.432Z,99420.63
2022-12-26T11:10:29.771Z,99421.63
2022-12-26T11:13:00.658Z,99427.75
2022-12-26T11:15:34.306Z,99429.06
2022-12-26T11:18:08.692Z,99426.66
2022-12-26T11:20:35.429Z,99427.59
2022-12-26T11:23:25.674Z,99428.69
2022-12-26T11:25:57.583Z,99418.81
2022-12-26T11:28:30.478Z,99416.75
2022-12-26T11:30:57.830Z,99398.09
2022-12-26T11:33:33.667Z,99400.72
2022-12-26T11:36:18.224Z,99401.97
2022-12-26T11:38:58.642Z,99408.00
2022-12-26T11:41:36.190Z,99412.47
2022-12-26T11:44:28.931Z,99404.22
2022-12-26T11:46:56.218Z,99398.25
2022-12-26T11:49:35.649Z,99388.00
2022-12-26T11:52:23.855Z,99394.97
2022-12-26T11:54:51.459Z,99385.53
2022-12-26T11:57:22.589Z,99390.19
2022-12-26T11:59:51.656Z,99391.50
2022-12-26T12:02:26.006Z,99394.94
2022-12-26T12:04:56.883Z,99392.44
2022-12-26T12:07:43.706Z,99399.41
2022-12-26T12:10:42.889Z,99392.03
2022-12-26T12:13:37.269Z,99397.84
2022-12-26T12:16:33.510Z,99393.78
2022-12-26T12:19:12.211Z,99377.63
2022-12-26T12:21:45.939Z,99388.75
2022-12-26T12:24:28.617Z,99391.00
2022-12-26T12:27:16.082Z,99394.63
2022-12-26T12:29:42.707Z,99400.34
2022-12-26T12:32:18.348Z,99398.78
2022-12-26T12:35:02.451Z,99400.25
2022-12-26T12:37:35.148Z,99403.88
2022-12-26T12:40:27.559Z,99401.88
2022-12-26T12:43:11.277Z,99398.69
2022-12-26T12:45:56.414Z,99401.06
2022-12-26T12:48:35.047Z,99403.06
2022-12-26T12:51:21.821Z,99399.81
2022-12-26T12:54:17.504Z,99391.63
2022-12-26T12:57:00.855Z,99390.38
2022-12-26T12:59:30.349Z,99388.03
2022-12-26T13:02:08.631Z,99381.50
2022-12-26T13:04:45.195Z,99389.97
2022-12-26T13:07:22.635Z,99376.81
2022-12-26T13:09:54.361Z,99380.09
2022-12-26T13:12:36.089Z,99380.41
2022-12-26T13:15:08.551Z,99375.63
2022-12-26T13:17:48.418Z,99371.16
2022-12-26T13:20:32.683Z,99360.38
2022-12-26T13:23:25.501Z,99363.13
2022-12-26T13:26:09.046Z,99358.59
2022-12-26T13:28:48.896Z,99359.72
2022-12-26T13:31:15.773Z,99349.28
2022-12-26T13:33:43.871Z,99354.47
2022-12-26T13:36:30.706Z,99367.66
2022-12-26T13:39:01.512Z,99356.94
2022-12-26T13:41:49.579Z,99356.06
2022-12-26T13:44:18.961Z,99355.81
2022-12-26T13:46:48.612Z,99357.47
2022-12-26T13:49:39.089Z,99352.06
2022-12-26T13:52:11.691Z,99354.53
2022-12-26T13:55:06.950Z,99354.78
2022-12-26T13:57:45.002Z,99342.59
2022-12-26T14:00:14.576Z,99349.56
2022-12-26T14:03:19.129Z,99355.47
2022-12-26T14:06:12.052Z,99351.25
2022-12-26T14:08:56.968Z,99342.44
2022-12-26T14:11:59.740Z,99340.75
2022-12-26T14:14:54.033Z,99336.66
2022-12-26T14:17:47.428Z,99356.56
2022-12-26T14:20:39.464Z,99348.78
2022-12-26T14:23:45.664Z,99350.59
2022-12-26T14:26:28.118Z,99351.97
2022-12-26T14:29:20.680Z,99354.50
2022-12-26T14:32:16.432Z,99352.41
2022-12-26T14:35:01.794Z,99349.00
2022-12-26T14:37:43.237Z,99356.31
2022-12-26T14:40:24.012Z,99352.19
2022-12-26T14:43:11.606Z,99355.84
2022-12-26T14:45:42.570Z,99341.34
2022-12-26T14:48:15.264Z,99357.84
2022-12-26T14:50:46.432Z,99353.09
2022-12-26T14:53:27.409Z,99350.00
2022-12-26T14:56:14.041Z,99348.13
2022-12-26T14:58:42.268Z,99354.72
2022-12-26T15:01:29.578Z,99355.66
2022-12-26T15:03:58.984Z,99366.97
2022-12-26T15:06:50.415Z,99357.81
2022-12-26T15:09:41.560Z,99356.75
2022-12-26T15:12:29.801Z,99353.69
2022-12-26T15:15:20.941Z,99353.41
2022-12-26T15:18:02.882Z,99363.59
2022-12-26T15:20:59.984Z,99359.13
2022-12-26T15:23:45.084Z,99354.31
2022-12-26T15:26:17.469Z,99352.91
2022-12-26T15:29:11.501Z,99355.72
2022-12-26T15:32:16.210Z,99355.19
2022-12-26T15:34:53.305Z,99357.75
2022-12-26T15:37:26.559Z,99356.59
2022-12-26T15:40:02.261Z,99346.72
2022-12-26T15:42:31.612Z,99339.50
2022-12-26T15:45:27.992Z,99342.47
2022-12-26T15:48:01.105Z,99348.97
2022-12-26T15:50:33.633Z,99336.00
2022-12-26T15:53:00.144Z,99329.78
2022-12-26T15:55:42.297Z,99305.41
2022-12-26T15:58:32.450Z,99341.63
2022-12-26T16:00:59.287Z,99339.59
2022-12-26T16:03:36.740Z,99330.69
2022-12-26T16:06:31.186Z,99341.56
2022-12-26T16:09:35.795Z,99341.56
2022-12-26T16:12:02.657Z,99341.25
2022-12-26T16:14:29.388Z,99338.72
2022-12-26T16:17:15.243Z,99338.56
2022-12-26T16:19:47.207Z,99342.81
2022-12-26T16:22:44.016Z,99345.94
2022-12-26T16:25:14.996Z,99345.31
2022-12-26T16:27:42.286Z,99347.59
2022-12-26T16:30:17.746Z,99356.47
2022-12-26T16:32:44.933Z,99354.22
2022-12-26T16:35:19.791Z,99348.69
2022-12-26T16:37:48.051Z,99350.41
2022-12-26T16:40:20.118Z,99345.44
2022-12-26T16:43:18.905Z,99353.09
2022-12-26T16:45:48.912Z,99352.75
2022-12-26T16:48:18.576Z,99355.31
2022-12-26T16:50:55.297Z,99347.38
2022-12-26T16:53:24.670Z,99342.00
2022-12-26T16:56:14.990Z,99342.88
2022-12-26T16:58:41.844Z,99326.59
2022-12-26T17:01:14.618Z,99341.72
2022-12-26T17:03:53.063Z,99329.28
2022-12-26T17:06:35.160Z,99327.00
2022-12-26T17:09:16.834Z,99331.78
2022-12-26T17:11:54.716Z,99337.44
2022-12-26T17:14:34.532Z,99327.63
2022-12-26T17:17:07.859Z,99327.78
2022-12-26T17:19:36.931Z,99318.03
2022-12-26T17:22:15.472Z,99327.09
2022-12-26T17:24:43.315Z,99328.09
2022-12-26T17:27:24.511Z,99332.25
2022-12-26T17:30:00.704Z,99334.47
2022-12-26T17:32:34.818Z,99332.66
2022-12-26T17:35:05.122Z,99333.34
2022-12-26T17:37:32.406Z,99330.66
2022-12-26T17:40:21.509Z,99329.41
2022-12-26T17:42:53.892Z,99321.19
2022-12-26T17:45:24.934Z,99324.28
2022-12-26T17:47:53.657Z,99319.25
2022-12-26T17:50:22.040Z,99329.22
2022-12-26T17:52:49.114Z,99324.66
2022-12-26T17:55:21.239Z,99326.09
2022-12-26T17:57:47.856Z,99316.22
2022-12-26T18:00:17.513Z,99320.31
2022-12-26T18:02:44.277Z,99308.00
2022-12-26T18:05:10.993Z,99307.16
2022-12-26T18:07:37.748Z,99294.75
2022-12-26T18:10:05.128Z,99306.22
2022-12-26T18:12:31.742Z,99308.59
2022-12-26T18:15:01.961Z,99321.00
2022-12-26T18:17:32.612Z,99314.50
2022-12-26T18:20:00.459Z,99315.88
2022-12-26T18:22:27.271Z,99307.59
2022-12-26T18:24:54.058Z,99305.47
2022-12-26T18:27:27.363Z,99304.94
2022-12-26T18:29:53.977Z,99300.81
2022-12-26T18:32:30.973Z,99297.16
2022-12-26T18:34:58.373Z,99303.06
2022-12-26T18:37:28.171Z,99297.16
2022-12-26T18:39:55.270Z,99296.59
2022-12-26T18:42:21.951Z,99286.84
2022-12-26T18:44:48.546Z,99285.13
2022-12-26T18:47:20.694Z,99290.25
2022-12-26T18:49:48.339Z,99284.72
2022-12-26T18:52:17.546Z,99287.13
2022-12-26T18:54:44.559Z,99272.16
2022-12-26T18:57:17.946Z,99272.00
2022-12-26T18:59:44.949Z,99278.50
2022-12-26T19:02:17.803Z,99274.66
2022-12-26T19:04:44.463Z,99264.75
2022-12-26T19:07:11.513Z,99267.63
2022-12-26T19:09:38.181Z,99259.72
2022-12-26T19:12:05.102Z,99255.34
2022-12-26T19:14:31.751Z,99269.03
2022-12-26T19:16:58.341Z,99255.44
2022-12-26T19:19:26.773Z,99267.59
2022-12-26T19:21:53.407Z,99252.09
2022-12-26T19:24:20.003Z,99254.03
2022-12-26T19:26:46.647Z,99250.09
2022-12-26T19:29:13.458Z,99248.69
2022-12-26T19:31:40.152Z,99254.03
2022-12-26T19:34:06.987Z,99255.28
2022-12-26T19:36:33.624Z,99266.16
2022-12-26T19:39:00.203Z,99269.81
2022-12-26T19:41:26.818Z,99263.16
2022-12-26T19:44:00.000Z,99257.50
2022-12-26T19:46:27.917Z,99270.91
2022-12-26T19:48:54.881Z,99265.81
2022-12-26T19:51:22.226Z,99269.75
2022-12-26T19:53:49.133Z,99258.88
2022-12-26T19:56:18.289Z,99267.25
2022-12-26T19:58:46.036Z,99262.47
2022-12-26T20:01:15.485Z,99251.16
2022-12-26T20:03:42.974Z,99250.00
2022-12-26T20:06:17.841Z,99251.50
2022-12-26T20:08:46.229Z,99251.38
2022-12-26T20:11:16.206Z,99222.91
2022-12-26T20:13:43.965Z,99248.44
2022-12-26T20:16:37.361Z,99238.84
2022-12-26T20:19:00.905Z,99242.50
2022-12-26T20:21:28.035Z,99246.19
2022-12-26T20:23:57.621Z,99250.75
2022-12-26T20:26:24.421Z,99255.84
2022-12-26T20:28:51.195Z,99249.06
2022-12-26T20:31:20.790Z,99268.78
2022-12-26T20:33:49.905Z,99265.78
2022-12-26T20:36:23.020Z,99263.50
2022-12-26T20:38:54.910Z,99256.91
2022-12-26T20:41:21.535Z,99249.66
2022-12-26T20:43:49.182Z,99253.81
2022-12-26T20:46:24.048Z,99245.91
2022-12-26T20:48:50.759Z,99261.13
2022-12-26T20:51:20.689Z,99245.72
2022-12-26T20:53:47.526Z,99256.81
2022-12-26T20:56:14.181Z,99246.81
2022-12-26T20:58:40.821Z,99256.09
2022-12-26T21:01:11.936Z,99254.84
2022-12-26T21:03:39.168Z,99253.19
2022-12-26T21:06:17.373Z,99254.84
2022-12-26T21:08:45.819Z,99251.16
2022-12-26T21:11:18.349Z,99248.22
2022-12-26T21:13:46.974Z,99242.00
2022-12-26T21:16:38.347Z,99231.31
2022-12-26T21:19:12.293Z,99234.63
2022-12-26T21:21:44.077Z,99221.03
2022-12-26T21:24:16.751Z,99224.09
2022-12-26T21:26:43.774Z,99220.28
2022-12-26T21:29:16.962Z,99217.63
2022-12-26T21:31:43.956Z,99215.41
2022-12-26T21:34:13.619Z,99225.91
2022-12-26T21:36:40.472Z,99219.22
2022-12-26T21:39:09.445Z,99212.75
2022-12-26T21:41:39.207Z,99208.72
2022-12-26T21:44:05.812Z,99212.25
2022-12-26T21:46:32.497Z,99212.09
2022-12-26T21:49:00.733Z,99217.13
2022-12-26T21:51:28.828Z,99213.97
2022-12-26T21:54:15.428Z,99227.25
2022-12-26T21:56:42.015Z,99225.78
2022-12-26T21:59:28.389Z,99221.09
2022-12-26T22:01:55.076Z,99207.72
2022-12-26T22:04:23.673Z,99207.72
2022-12-26T22:06:51.391Z,99214.88
2022-12-26T22:09:18.369Z,99213.66
2022-12-26T22:12:04.343Z,99207.19
2022-12-26T22:14:31.029Z,99205.41
2022-12-26T22:16:58.117Z,99198.63
2022-12-26T22:19:25.347Z,99200.31
2022-12-26T22:21:53.355Z,99198.03
2022-12-26T22:24:21.807Z,99210.53
2022-12-26T22:26:48.710Z,99203.00
2022-12-26T22:29:15.459Z,99198.78
2022-12-26T22:31:42.118Z,99202.56
2022-12-26T22:34:14.177Z,99197.81
2022-12-26T22:36:41.572Z,99184.44
2022-12-26T22:39:12.172Z,99189.31
2022-12-26T22:41:39.125Z,99183.63
2022-12-26T22:44:05.851Z,99185.06
2022-12-26T22:46:32.700Z,99174.97
2022-12-26T22:48:59.321Z,99171.94
2022-12-26T22:51:26.747Z,99180.44
2022-12-26T22:53:55.120Z,99169.28
2022-12-26T22:56:21.758Z,99170.81
2022-12-26T22:58:48.393Z,99170.13
2022-12-26T23:01:18.961Z,99166.16
2022-12-26T23:03:46.605Z,99150.19
2022-12-26T23:06:26.607Z,99157.03
2022-12-26T23:08:56.596Z,99162.88
2022-12-26T23:11:28.792Z,99145.28
2022-12-26T23:14:01.129Z,99157.06
2022-12-26T23:16:33.635Z,99156.22
2022-12-26T23:19:32.099Z,99156.47
2022-12-26T23:22:00.492Z,99148.94
2022-12-26T23:24:30.029Z,99159.50
2022-12-26T23:27:22.285Z,99164.38
2022-12-26T23:30:08.675Z,99169.38
2022-12-26T23:32:36.364Z,99163.88
2022-12-26T23:35:04.324Z,99169.59
2022-12-26T23:37:30.920Z,99170.72
2022-12-26T23:39:58.584Z,99168.63
2022-12-26T23:42:25.845Z,99153.47
2022-12-26T23:44:52.458Z,99153.09
2022-12-26T23:47:19.042Z,99157.72
2022-12-26T23:49:45.612Z,99152.63
2022-12-26T23:52:12.239Z,99156.88
2022-12-26T23:54:38.875Z,99154.22
2022-12-26T23:57:05.454Z,99156.78
2022-12-26T23:59:32.102Z,99155.53
